sensor_id;sensor_type;location;lat;lon;timestamp;temperature;humidity
37642;DHT22;23486;51.956;5.888;2023-02-02T00:00:13;7.00;99.90
37642;DHT22;23486;51.956;5.888;2023-02-02T00:02:39;7.00;99.90
37642;DHT22;23486;51.956;5.888;2023-02-02T00:05:31;7.00;99.90
37642;DHT22;23486;51.956;5.888;2023-02-02T00:07:56;7.00;99.90
37642;DHT22;23486;51.956;5.888;2023-02-02T00:10:22;7.00;99.90
37642;DHT22;23486;51.956;5.888;2023-02-02T00:12:47;7.00;99.90
37642;DHT22;23486;51.956;5.888;2023-02-02T00:15:13;7.00;99.90
37642;DHT22;23486;51.956;5.888;2023-02-02T00:17:38;7.00;99.90
37642;DHT22;23486;51.956;5.888;2023-02-02T00:20:04;7.00;99.90
37642;DHT22;23486;51.956;5.888;2023-02-02T00:22:30;7.00;99.90
37642;DHT22;23486;51.956;5.888;2023-02-02T00:24:58;7.00;99.90
37642;DHT22;23486;51.956;5.888;2023-02-02T00:27:24;7.00;99.90
37642;DHT22;23486;51.956;5.888;2023-02-02T00:29:49;7.00;99.90
37642;DHT22;23486;51.956;5.888;2023-02-02T00:32:18;7.10;99.90
37642;DHT22;23486;51.956;5.888;2023-02-02T00:34:44;7.10;99.90
37642;DHT22;23486;51.956;5.888;2023-02-02T00:37:10;7.10;99.90
37642;DHT22;23486;51.956;5.888;2023-02-02T00:39:35;7.10;99.90
37642;DHT22;23486;51.956;5.888;2023-02-02T00:42:01;7.10;99.90
37642;DHT22;23486;51.956;5.888;2023-02-02T00:44:26;7.10;99.90
37642;DHT22;23486;51.956;5.888;2023-02-02T00:47:11;7.10;99.90
37642;DHT22;23486;51.956;5.888;2023-02-02T00:49:36;7.10;99.90
37642;DHT22;23486;51.956;5.888;2023-02-02T00:52:02;7.10;99.90
37642;DHT22;23486;51.956;5.888;2023-02-02T00:54:28;7.00;99.90
37642;DHT22;23486;51.956;5.888;2023-02-02T00:56:53;7.10;99.90
37642;DHT22;23486;51.956;5.888;2023-02-02T00:59:19;7.10;99.90
37642;DHT22;23486;51.956;5.888;2023-02-02T01:01:45;7.10;99.90
37642;DHT22;23486;51.956;5.888;2023-02-02T01:04:10;7.10;99.90
37642;DHT22;23486;51.956;5.888;2023-02-02T01:06:36;7.10;99.90
37642;DHT22;23486;51.956;5.888;2023-02-02T01:09:02;7.10;99.90
37642;DHT22;23486;51.956;5.888;2023-02-02T01:11:27;7.10;99.90
37642;DHT22;23486;51.956;5.888;2023-02-02T01:13:55;7.10;99.90
37642;DHT22;23486;51.956;5.888;2023-02-02T01:16:20;7.10;99.90
37642;DHT22;23486;51.956;5.888;2023-02-02T01:18:50;7.10;99.90
37642;DHT22;23486;51.956;5.888;2023-02-02T01:21:15;7.10;99.90
37642;DHT22;23486;51.956;5.888;2023-02-02T01:23:41;7.10;99.90
37642;DHT22;23486;51.956;5.888;2023-02-02T01:26:08;7.10;99.90
37642;DHT22;23486;51.956;5.888;2023-02-02T01:28:39;7.10;99.90
37642;DHT22;23486;51.956;5.888;2023-02-02T01:31:09;7.10;99.90
37642;DHT22;23486;51.956;5.888;2023-02-02T01:33:35;7.10;99.90
37642;DHT22;23486;51.956;5.888;2023-02-02T01:42:45;7.00;99.90
37642;DHT22;23486;51.956;5.888;2023-02-02T01:45:18;7.00;99.90
37642;DHT22;23486;51.956;5.888;2023-02-02T01:47:50;7.00;99.90
37642;DHT22;23486;51.956;5.888;2023-02-02T01:50:19;7.00;99.90
37642;DHT22;23486;51.956;5.888;2023-02-02T01:52:47;7.00;99.90
37642;DHT22;23486;51.956;5.888;2023-02-02T01:55:16;7.00;99.90
37642;DHT22;23486;51.956;5.888;2023-02-02T01:57:50;7.00;99.90
37642;DHT22;23486;51.956;5.888;2023-02-02T02:00:18;7.00;99.90
37642;DHT22;23486;51.956;5.888;2023-02-02T02:02:52;7.00;99.90
37642;DHT22;23486;51.956;5.888;2023-02-02T02:05:25;6.90;99.90
37642;DHT22;23486;51.956;5.888;2023-02-02T02:07:55;6.90;99.90
37642;DHT22;23486;51.956;5.888;2023-02-02T02:10:22;6.90;99.90
37642;DHT22;23486;51.956;5.888;2023-02-02T02:12:48;6.90;99.90
37642;DHT22;23486;51.956;5.888;2023-02-02T02:15:19;6.90;99.90
37642;DHT22;23486;51.956;5.888;2023-02-02T02:36:16;6.60;99.90
37642;DHT22;23486;51.956;5.888;2023-02-02T02:41:30;6.70;99.90
37642;DHT22;23486;51.956;5.888;2023-02-02T02:44:04;6.70;99.90
37642;DHT22;23486;51.956;5.888;2023-02-02T02:46:31;6.70;99.90
37642;DHT22;23486;51.956;5.888;2023-02-02T02:49:00;6.70;99.90
37642;DHT22;23486;51.956;5.888;2023-02-02T02:51:47;6.70;99.90
37642;DHT22;23486;51.956;5.888;2023-02-02T02:56:54;6.70;99.90
37642;DHT22;23486;51.956;5.888;2023-02-02T03:02:32;6.70;99.90
37642;DHT22;23486;51.956;5.888;2023-02-02T03:07:46;6.70;99.90
37642;DHT22;23486;51.956;5.888;2023-02-02T03:10:13;6.70;99.90
37642;DHT22;23486;51.956;5.888;2023-02-02T03:12:49;6.70;99.90
37642;DHT22;23486;51.956;5.888;2023-02-02T03:15:21;6.70;99.90
37642;DHT22;23486;51.956;5.888;2023-02-02T03:17:47;6.70;99.90
37642;DHT22;23486;51.956;5.888;2023-02-02T03:20:14;6.70;99.90
37642;DHT22;23486;51.956;5.888;2023-02-02T03:22:40;6.60;99.90
37642;DHT22;23486;51.956;5.888;2023-02-02T03:25:06;6.60;99.90
37642;DHT22;23486;51.956;5.888;2023-02-02T03:27:32;6.70;99.90
37642;DHT22;23486;51.956;5.888;2023-02-02T03:29:58;6.60;99.90
37642;DHT22;23486;51.956;5.888;2023-02-02T03:32:24;6.70;99.90
37642;DHT22;23486;51.956;5.888;2023-02-02T03:34:50;6.70;99.90
37642;DHT22;23486;51.956;5.888;2023-02-02T03:37:15;6.70;99.90
37642;DHT22;23486;51.956;5.888;2023-02-02T03:39:41;6.70;99.90
37642;DHT22;23486;51.956;5.888;2023-02-02T03:42:06;6.70;99.90
37642;DHT22;23486;51.956;5.888;2023-02-02T03:44:32;6.70;99.90
37642;DHT22;23486;51.956;5.888;2023-02-02T03:46:57;6.70;99.90
37642;DHT22;23486;51.956;5.888;2023-02-02T03:49:23;6.70;99.90
37642;DHT22;23486;51.956;5.888;2023-02-02T03:51:49;6.70;99.90
37642;DHT22;23486;51.956;5.888;2023-02-02T03:54:14;6.70;99.90
37642;DHT22;23486;51.956;5.888;2023-02-02T03:56:42;6.70;99.90
37642;DHT22;23486;51.956;5.888;2023-02-02T03:59:08;6.70;99.90
37642;DHT22;23486;51.956;5.888;2023-02-02T04:01:33;6.70;99.90
37642;DHT22;23486;51.956;5.888;2023-02-02T04:03:59;6.70;99.90
37642;DHT22;23486;51.956;5.888;2023-02-02T04:06:25;6.80;99.90
37642;DHT22;23486;51.956;5.888;2023-02-02T04:08:51;6.80;99.90
37642;DHT22;23486;51.956;5.888;2023-02-02T04:11:17;6.70;99.90
37642;DHT22;23486;51.956;5.888;2023-02-02T04:13:43;6.80;99.90
37642;DHT22;23486;51.956;5.888;2023-02-02T04:16:10;6.80;99.90
37642;DHT22;23486;51.956;5.888;2023-02-02T04:18:36;6.90;99.90
37642;DHT22;23486;51.956;5.888;2023-02-02T04:21:03;6.90;99.90
37642;DHT22;23486;51.956;5.888;2023-02-02T04:23:30;6.80;99.90
37642;DHT22;23486;51.956;5.888;2023-02-02T04:25:59;6.90;99.90
37642;DHT22;23486;51.956;5.888;2023-02-02T04:28:25;6.90;99.90
37642;DHT22;23486;51.956;5.888;2023-02-02T04:30:52;6.90;99.90
37642;DHT22;23486;51.956;5.888;2023-02-02T04:33:22;7.00;99.90
37642;DHT22;23486;51.956;5.888;2023-02-02T04:35:48;7.00;99.90
37642;DHT22;23486;51.956;5.888;2023-02-02T04:38:14;7.00;99.90
37642;DHT22;23486;51.956;5.888;2023-02-02T04:40:42;7.00;99.90
37642;DHT22;23486;51.956;5.888;2023-02-02T04:43:08;7.00;99.90
37642;DHT22;23486;51.956;5.888;2023-02-02T04:45:34;7.00;99.90
37642;DHT22;23486;51.956;5.888;2023-02-02T04:48:00;7.00;99.90
37642;DHT22;23486;51.956;5.888;2023-02-02T04:50:26;7.10;99.90
37642;DHT22;23486;51.956;5.888;2023-02-02T04:52:52;7.00;99.90
37642;DHT22;23486;51.956;5.888;2023-02-02T04:55:17;7.10;99.90
37642;DHT22;23486;51.956;5.888;2023-02-02T04:57:43;7.10;99.90
37642;DHT22;23486;51.956;5.888;2023-02-02T05:00:09;7.10;99.90
37642;DHT22;23486;51.956;5.888;2023-02-02T05:02:37;7.10;99.90
37642;DHT22;23486;51.956;5.888;2023-02-02T05:05:03;7.10;99.90
37642;DHT22;23486;51.956;5.888;2023-02-02T05:07:30;7.10;99.90
37642;DHT22;23486;51.956;5.888;2023-02-02T05:09:55;7.10;99.90
37642;DHT22;23486;51.956;5.888;2023-02-02T05:12:21;7.10;99.90
37642;DHT22;23486;51.956;5.888;2023-02-02T05:14:47;7.10;99.90
37642;DHT22;23486;51.956;5.888;2023-02-02T05:17:12;7.20;99.90
37642;DHT22;23486;51.956;5.888;2023-02-02T05:19:39;7.20;99.90
37642;DHT22;23486;51.956;5.888;2023-02-02T05:22:05;7.20;99.90
37642;DHT22;23486;51.956;5.888;2023-02-02T05:24:30;7.20;99.90
37642;DHT22;23486;51.956;5.888;2023-02-02T05:26:56;7.20;99.90
37642;DHT22;23486;51.956;5.888;2023-02-02T05:29:25;7.20;99.90
37642;DHT22;23486;51.956;5.888;2023-02-02T05:31:56;7.20;99.90
37642;DHT22;23486;51.956;5.888;2023-02-02T05:34:22;7.20;99.90
37642;DHT22;23486;51.956;5.888;2023-02-02T05:36:47;7.20;99.90
37642;DHT22;23486;51.956;5.888;2023-02-02T05:39:16;7.20;99.90
37642;DHT22;23486;51.956;5.888;2023-02-02T05:41:42;7.20;99.90
37642;DHT22;23486;51.956;5.888;2023-02-02T05:44:10;7.20;99.90
37642;DHT22;23486;51.956;5.888;2023-02-02T05:46:36;7.30;99.90
37642;DHT22;23486;51.956;5.888;2023-02-02T05:49:02;7.20;99.90
37642;DHT22;23486;51.956;5.888;2023-02-02T05:51:33;7.30;99.90
37642;DHT22;23486;51.956;5.888;2023-02-02T05:54:00;7.30;99.90
37642;DHT22;23486;51.956;5.888;2023-02-02T05:56:25;7.30;99.90
37642;DHT22;23486;51.956;5.888;2023-02-02T05:58:51;7.30;99.90
37642;DHT22;23486;51.956;5.888;2023-02-02T06:01:18;7.30;99.90
37642;DHT22;23486;51.956;5.888;2023-02-02T06:03:44;7.30;99.90
37642;DHT22;23486;51.956;5.888;2023-02-02T06:06:09;7.30;99.90
37642;DHT22;23486;51.956;5.888;2023-02-02T06:08:35;7.30;99.90
37642;DHT22;23486;51.956;5.888;2023-02-02T06:11:11;7.30;99.90
37642;DHT22;23486;51.956;5.888;2023-02-02T06:13:37;7.30;99.90
37642;DHT22;23486;51.956;5.888;2023-02-02T06:16:03;7.30;99.90
37642;DHT22;23486;51.956;5.888;2023-02-02T06:18:28;7.40;99.90
37642;DHT22;23486;51.956;5.888;2023-02-02T06:20:58;7.30;99.90
37642;DHT22;23486;51.956;5.888;2023-02-02T06:23:23;7.30;99.90
37642;DHT22;23486;51.956;5.888;2023-02-02T06:25:49;7.30;99.90
37642;DHT22;23486;51.956;5.888;2023-02-02T06:28:15;7.30;99.90
37642;DHT22;23486;51.956;5.888;2023-02-02T06:30:40;7.30;99.90
37642;DHT22;23486;51.956;5.888;2023-02-02T06:33:06;7.40;99.90
37642;DHT22;23486;51.956;5.888;2023-02-02T06:35:32;7.30;99.90
37642;DHT22;23486;51.956;5.888;2023-02-02T06:37:57;7.30;99.90
37642;DHT22;23486;51.956;5.888;2023-02-02T06:40:24;7.30;99.90
37642;DHT22;23486;51.956;5.888;2023-02-02T06:43:01;7.30;99.90
37642;DHT22;23486;51.956;5.888;2023-02-02T06:45:28;7.30;99.90
37642;DHT22;23486;51.956;5.888;2023-02-02T06:47:57;7.30;99.90
37642;DHT22;23486;51.956;5.888;2023-02-02T06:50:25;7.30;99.90
37642;DHT22;23486;51.956;5.888;2023-02-02T06:52:52;7.30;99.90
37642;DHT22;23486;51.956;5.888;2023-02-02T06:55:18;7.30;99.90
37642;DHT22;23486;51.956;5.888;2023-02-02T06:57:47;7.30;99.90
37642;DHT22;23486;51.956;5.888;2023-02-02T07:00:13;7.30;99.90
37642;DHT22;23486;51.956;5.888;2023-02-02T07:02:39;7.30;99.90
37642;DHT22;23486;51.956;5.888;2023-02-02T07:05:05;7.30;99.90
37642;DHT22;23486;51.956;5.888;2023-02-02T07:07:32;7.30;99.90
37642;DHT22;23486;51.956;5.888;2023-02-02T07:10:00;7.30;99.90
37642;DHT22;23486;51.956;5.888;2023-02-02T07:12:26;7.30;99.90
37642;DHT22;23486;51.956;5.888;2023-02-02T07:14:52;7.30;99.90
37642;DHT22;23486;51.956;5.888;2023-02-02T07:17:18;7.30;99.90
37642;DHT22;23486;51.956;5.888;2023-02-02T07:19:44;7.30;99.90
37642;DHT22;23486;51.956;5.888;2023-02-02T07:22:10;7.30;99.90
37642;DHT22;23486;51.956;5.888;2023-02-02T07:24:35;7.30;99.90
37642;DHT22;23486;51.956;5.888;2023-02-02T07:27:04;7.30;99.90
37642;DHT22;23486;51.956;5.888;2023-02-02T07:29:30;7.30;99.90
37642;DHT22;23486;51.956;5.888;2023-02-02T07:31:55;7.30;99.90
37642;DHT22;23486;51.956;5.888;2023-02-02T07:34:21;7.30;99.90
37642;DHT22;23486;51.956;5.888;2023-02-02T07:36:47;7.30;99.90
37642;DHT22;23486;51.956;5.888;2023-02-02T07:39:15;7.30;99.90
37642;DHT22;23486;51.956;5.888;2023-02-02T07:41:41;7.30;99.90
37642;DHT22;23486;51.956;5.888;2023-02-02T07:44:12;7.30;99.90
37642;DHT22;23486;51.956;5.888;2023-02-02T07:46:42;7.30;99.90
37642;DHT22;23486;51.956;5.888;2023-02-02T07:49:17;7.30;99.90
37642;DHT22;23486;51.956;5.888;2023-02-02T07:51:44;7.30;99.90
37642;DHT22;23486;51.956;5.888;2023-02-02T07:54:13;7.30;99.90
37642;DHT22;23486;51.956;5.888;2023-02-02T07:56:39;7.30;99.90
37642;DHT22;23486;51.956;5.888;2023-02-02T07:59:09;7.30;99.90
37642;DHT22;23486;51.956;5.888;2023-02-02T08:01:39;7.30;99.90
37642;DHT22;23486;51.956;5.888;2023-02-02T08:04:04;7.30;99.90
37642;DHT22;23486;51.956;5.888;2023-02-02T08:06:32;7.30;99.90
37642;DHT22;23486;51.956;5.888;2023-02-02T08:08:59;7.30;99.90
37642;DHT22;23486;51.956;5.888;2023-02-02T08:11:26;7.30;99.90
37642;DHT22;23486;51.956;5.888;2023-02-02T08:13:57;7.30;99.90
37642;DHT22;23486;51.956;5.888;2023-02-02T08:16:24;7.30;99.90
37642;DHT22;23486;51.956;5.888;2023-02-02T08:18:53;7.30;99.90
37642;DHT22;23486;51.956;5.888;2023-02-02T08:21:22;7.30;99.90
37642;DHT22;23486;51.956;5.888;2023-02-02T08:23:48;7.40;99.90
37642;DHT22;23486;51.956;5.888;2023-02-02T08:26:25;7.40;99.90
37642;DHT22;23486;51.956;5.888;2023-02-02T08:28:54;7.30;99.90
37642;DHT22;23486;51.956;5.888;2023-02-02T08:31:22;7.40;99.90
37642;DHT22;23486;51.956;5.888;2023-02-02T08:33:50;7.40;99.90
37642;DHT22;23486;51.956;5.888;2023-02-02T08:36:17;7.40;99.90
37642;DHT22;23486;51.956;5.888;2023-02-02T08:38:44;7.40;99.90
37642;DHT22;23486;51.956;5.888;2023-02-02T08:41:12;7.40;99.90
37642;DHT22;23486;51.956;5.888;2023-02-02T08:43:39;7.40;99.90
37642;DHT22;23486;51.956;5.888;2023-02-02T08:46:05;7.50;99.90
37642;DHT22;23486;51.956;5.888;2023-02-02T08:48:32;7.50;99.90
37642;DHT22;23486;51.956;5.888;2023-02-02T08:50:58;7.50;99.90
37642;DHT22;23486;51.956;5.888;2023-02-02T08:53:24;7.50;99.90
37642;DHT22;23486;51.956;5.888;2023-02-02T08:56:01;7.60;99.90
37642;DHT22;23486;51.956;5.888;2023-02-02T08:58:28;7.60;99.90
37642;DHT22;23486;51.956;5.888;2023-02-02T09:01:02;7.60;99.90
37642;DHT22;23486;51.956;5.888;2023-02-02T09:03:27;7.60;99.90
37642;DHT22;23486;51.956;5.888;2023-02-02T09:05:53;7.60;99.90
37642;DHT22;23486;51.956;5.888;2023-02-02T09:08:19;7.60;99.90
37642;DHT22;23486;51.956;5.888;2023-02-02T09:10:47;7.60;99.90
37642;DHT22;23486;51.956;5.888;2023-02-02T09:13:13;7.60;99.90
37642;DHT22;23486;51.956;5.888;2023-02-02T09:15:38;7.70;99.90
37642;DHT22;23486;51.956;5.888;2023-02-02T09:18:04;7.70;99.90
37642;DHT22;23486;51.956;5.888;2023-02-02T09:20:29;7.70;99.90
37642;DHT22;23486;51.956;5.888;2023-02-02T09:22:56;7.70;99.90
37642;DHT22;23486;51.956;5.888;2023-02-02T09:25:22;7.80;99.90
37642;DHT22;23486;51.956;5.888;2023-02-02T09:27:49;7.80;99.90
37642;DHT22;23486;51.956;5.888;2023-02-02T09:30:15;7.90;99.90
37642;DHT22;23486;51.956;5.888;2023-02-02T09:32:43;7.90;99.90
37642;DHT22;23486;51.956;5.888;2023-02-02T09:35:10;7.90;99.90
37642;DHT22;23486;51.956;5.888;2023-02-02T09:37:35;7.90;99.90
37642;DHT22;23486;51.956;5.888;2023-02-02T09:40:03;8.00;99.90
37642;DHT22;23486;51.956;5.888;2023-02-02T09:44:58;7.90;99.90
37642;DHT22;23486;51.956;5.888;2023-02-02T09:47:38;8.00;99.90
37642;DHT22;23486;51.956;5.888;2023-02-02T09:50:42;8.00;99.90
37642;DHT22;23486;51.956;5.888;2023-02-02T09:55:50;8.00;99.90
37642;DHT22;23486;51.956;5.888;2023-02-02T09:58:35;8.00;99.90
37642;DHT22;23486;51.956;5.888;2023-02-02T10:01:25;8.10;99.90
37642;DHT22;23486;51.956;5.888;2023-02-02T10:04:14;8.00;99.90
37642;DHT22;23486;51.956;5.888;2023-02-02T10:07:07;8.10;99.90
37642;DHT22;23486;51.956;5.888;2023-02-02T10:09:45;8.10;99.90
37642;DHT22;23486;51.956;5.888;2023-02-02T10:23:24;8.20;99.90
37642;DHT22;23486;51.956;5.888;2023-02-02T10:28:42;8.20;99.90
37642;DHT22;23486;51.956;5.888;2023-02-02T10:31:40;8.20;99.90
37642;DHT22;23486;51.956;5.888;2023-02-02T10:34:22;8.30;99.90
37642;DHT22;23486;51.956;5.888;2023-02-02T10:37:33;8.20;99.90
37642;DHT22;23486;51.956;5.888;2023-02-02T10:45:54;8.20;99.90
37642;DHT22;23486;51.956;5.888;2023-02-02T10:48:27;8.20;99.90
37642;DHT22;23486;51.956;5.888;2023-02-02T10:51:03;8.20;99.90
37642;DHT22;23486;51.956;5.888;2023-02-02T10:53:32;8.30;99.90
37642;DHT22;23486;51.956;5.888;2023-02-02T10:56:11;8.30;99.90
37642;DHT22;23486;51.956;5.888;2023-02-02T11:01:09;8.40;99.90
37642;DHT22;23486;51.956;5.888;2023-02-02T11:03:36;8.40;99.90
37642;DHT22;23486;51.956;5.888;2023-02-02T11:06:05;8.40;99.90
37642;DHT22;23486;51.956;5.888;2023-02-02T11:08:51;8.50;99.90
37642;DHT22;23486;51.956;5.888;2023-02-02T11:11:30;8.60;99.90
37642;DHT22;23486;51.956;5.888;2023-02-02T11:14:14;8.50;99.90
37642;DHT22;23486;51.956;5.888;2023-02-02T11:16:44;8.50;99.90
37642;DHT22;23486;51.956;5.888;2023-02-02T11:19:20;8.50;99.90
37642;DHT22;23486;51.956;5.888;2023-02-02T11:21:51;8.40;99.90
37642;DHT22;23486;51.956;5.888;2023-02-02T11:29:49;8.40;99.90
37642;DHT22;23486;51.956;5.888;2023-02-02T11:37:37;8.40;99.90
37642;DHT22;23486;51.956;5.888;2023-02-02T11:42:49;8.30;99.90
37642;DHT22;23486;51.956;5.888;2023-02-02T11:45:28;8.30;99.90
37642;DHT22;23486;51.956;5.888;2023-02-02T11:48:00;8.30;99.90
37642;DHT22;23486;51.956;5.888;2023-02-02T11:50:27;8.30;99.90
37642;DHT22;23486;51.956;5.888;2023-02-02T11:52:53;8.40;99.90
37642;DHT22;23486;51.956;5.888;2023-02-02T11:55:28;8.40;99.90
37642;DHT22;23486;51.956;5.888;2023-02-02T11:58:20;8.40;99.90
37642;DHT22;23486;51.956;5.888;2023-02-02T12:00:54;8.40;99.90
37642;DHT22;23486;51.956;5.888;2023-02-02T12:03:34;8.40;99.90
37642;DHT22;23486;51.956;5.888;2023-02-02T12:06:17;8.40;99.90
37642;DHT22;23486;51.956;5.888;2023-02-02T12:08:43;8.40;99.90
37642;DHT22;23486;51.956;5.888;2023-02-02T12:11:33;8.40;99.90
37642;DHT22;23486;51.956;5.888;2023-02-02T12:20:09;8.50;99.90
37642;DHT22;23486;51.956;5.888;2023-02-02T12:34:31;8.40;99.90
37642;DHT22;23486;51.956;5.888;2023-02-02T12:39:55;8.40;99.90
37642;DHT22;23486;51.956;5.888;2023-02-02T12:42:35;8.40;99.90
37642;DHT22;23486;51.956;5.888;2023-02-02T12:45:23;8.40;99.90
37642;DHT22;23486;51.956;5.888;2023-02-02T12:47:55;8.40;99.90
37642;DHT22;23486;51.956;5.888;2023-02-02T12:56:21;8.30;99.90
37642;DHT22;23486;51.956;5.888;2023-02-02T13:01:52;8.30;99.90
37642;DHT22;23486;51.956;5.888;2023-02-02T13:12:24;8.30;99.90
37642;DHT22;23486;51.956;5.888;2023-02-02T13:15:01;8.30;99.90
37642;DHT22;23486;51.956;5.888;2023-02-02T13:17:54;8.20;99.90
37642;DHT22;23486;51.956;5.888;2023-02-02T13:22:55;8.30;99.90
37642;DHT22;23486;51.956;5.888;2023-02-02T13:25:30;8.10;99.90
37642;DHT22;23486;51.956;5.888;2023-02-02T13:27:59;8.10;99.90
37642;DHT22;23486;51.956;5.888;2023-02-02T13:30:31;8.20;99.90
37642;DHT22;23486;51.956;5.888;2023-02-02T13:33:01;8.10;99.90
37642;DHT22;23486;51.956;5.888;2023-02-02T13:35:39;8.10;99.90
37642;DHT22;23486;51.956;5.888;2023-02-02T13:38:27;8.10;99.90
37642;DHT22;23486;51.956;5.888;2023-02-02T13:41:01;8.10;99.90
37642;DHT22;23486;51.956;5.888;2023-02-02T13:46:25;8.10;99.90
37642;DHT22;23486;51.956;5.888;2023-02-02T13:51:50;8.10;99.90
37642;DHT22;23486;51.956;5.888;2023-02-02T14:02:39;8.10;99.90
37642;DHT22;23486;51.956;5.888;2023-02-02T14:05:06;8.10;99.90
37642;DHT22;23486;51.956;5.888;2023-02-02T14:07:40;8.10;99.90
37642;DHT22;23486;51.956;5.888;2023-02-02T14:10:21;8.10;99.90
37642;DHT22;23486;51.956;5.888;2023-02-02T14:12:47;8.00;99.90
37642;DHT22;23486;51.956;5.888;2023-02-02T14:15:13;8.10;99.90
37642;DHT22;23486;51.956;5.888;2023-02-02T14:20:46;8.10;99.90
37642;DHT22;23486;51.956;5.888;2023-02-02T14:23:48;8.10;99.90
37642;DHT22;23486;51.956;5.888;2023-02-02T14:26:38;8.10;99.90
37642;DHT22;23486;51.956;5.888;2023-02-02T14:32:29;8.10;99.90
37642;DHT22;23486;51.956;5.888;2023-02-02T14:34:59;8.10;99.90
37642;DHT22;23486;51.956;5.888;2023-02-02T14:49:09;8.10;99.90
37642;DHT22;23486;51.956;5.888;2023-02-02T14:51:48;8.10;99.90
37642;DHT22;23486;51.956;5.888;2023-02-02T14:54:20;8.20;99.90
37642;DHT22;23486;51.956;5.888;2023-02-02T14:56:58;8.20;99.90
37642;DHT22;23486;51.956;5.888;2023-02-02T14:59:45;8.20;99.90
37642;DHT22;23486;51.956;5.888;2023-02-02T15:02:19;8.20;99.90
37642;DHT22;23486;51.956;5.888;2023-02-02T15:04:47;8.20;99.90
37642;DHT22;23486;51.956;5.888;2023-02-02T15:09:52;8.20;99.90
37642;DHT22;23486;51.956;5.888;2023-02-02T15:12:37;8.20;99.90
37642;DHT22;23486;51.956;5.888;2023-02-02T15:15:22;8.20;99.90
37642;DHT22;23486;51.956;5.888;2023-02-02T15:18:01;8.30;99.90
37642;DHT22;23486;51.956;5.888;2023-02-02T15:20:32;8.20;99.90
37642;DHT22;23486;51.956;5.888;2023-02-02T15:26:00;8.20;99.90
37642;DHT22;23486;51.956;5.888;2023-02-02T15:31:28;8.20;99.90
37642;DHT22;23486;51.956;5.888;2023-02-02T15:34:04;8.20;99.90
37642;DHT22;23486;51.956;5.888;2023-02-02T15:36:37;8.20;99.90
37642;DHT22;23486;51.956;5.888;2023-02-02T15:39:18;8.20;99.90
37642;DHT22;23486;51.956;5.888;2023-02-02T15:41:49;8.20;99.90
37642;DHT22;23486;51.956;5.888;2023-02-02T15:44:36;8.20;99.90
37642;DHT22;23486;51.956;5.888;2023-02-02T15:47:04;8.20;99.90
37642;DHT22;23486;51.956;5.888;2023-02-02T15:49:31;8.20;99.90
37642;DHT22;23486;51.956;5.888;2023-02-02T15:52:01;8.20;99.90
37642;DHT22;23486;51.956;5.888;2023-02-02T15:54:33;8.20;99.90
37642;DHT22;23486;51.956;5.888;2023-02-02T15:57:00;8.10;99.90
37642;DHT22;23486;51.956;5.888;2023-02-02T15:59:29;8.20;99.90
37642;DHT22;23486;51.956;5.888;2023-02-02T16:04:38;8.10;99.90
37642;DHT22;23486;51.956;5.888;2023-02-02T16:07:08;8.10;99.90
37642;DHT22;23486;51.956;5.888;2023-02-02T16:09:35;8.10;99.90
37642;DHT22;23486;51.956;5.888;2023-02-02T16:12:11;8.10;99.90
37642;DHT22;23486;51.956;5.888;2023-02-02T16:14:48;8.10;99.90
37642;DHT22;23486;51.956;5.888;2023-02-02T16:17:28;8.10;99.90
37642;DHT22;23486;51.956;5.888;2023-02-02T16:20:02;8.10;99.90
37642;DHT22;23486;51.956;5.888;2023-02-02T16:22:31;8.10;99.90
37642;DHT22;23486;51.956;5.888;2023-02-02T16:25:11;8.10;99.90
37642;DHT22;23486;51.956;5.888;2023-02-02T16:27:42;8.10;99.90
37642;DHT22;23486;51.956;5.888;2023-02-02T16:30:26;8.10;99.90
37642;DHT22;23486;51.956;5.888;2023-02-02T16:32:53;8.10;99.90
37642;DHT22;23486;51.956;5.888;2023-02-02T16:35:35;8.00;99.90
37642;DHT22;23486;51.956;5.888;2023-02-02T16:40:47;8.10;99.90
37642;DHT22;23486;51.956;5.888;2023-02-02T16:43:25;8.10;99.90
37642;DHT22;23486;51.956;5.888;2023-02-02T16:45:56;8.00;99.90
37642;DHT22;23486;51.956;5.888;2023-02-02T16:48:34;8.00;99.90
37642;DHT22;23486;51.956;5.888;2023-02-02T16:51:21;8.00;99.90
37642;DHT22;23486;51.956;5.888;2023-02-02T16:53:57;8.00;99.90
37642;DHT22;23486;51.956;5.888;2023-02-02T16:56:34;8.10;99.90
37642;DHT22;23486;51.956;5.888;2023-02-02T16:59:14;8.00;99.90
37642;DHT22;23486;51.956;5.888;2023-02-02T17:01:44;8.00;99.90
37642;DHT22;23486;51.956;5.888;2023-02-02T17:04:20;8.00;99.90
37642;DHT22;23486;51.956;5.888;2023-02-02T17:06:48;8.10;99.90
37642;DHT22;23486;51.956;5.888;2023-02-02T17:09:32;8.00;99.90
37642;DHT22;23486;51.956;5.888;2023-02-02T17:14:55;8.00;99.90
37642;DHT22;23486;51.956;5.888;2023-02-02T17:17:30;8.10;99.90
37642;DHT22;23486;51.956;5.888;2023-02-02T17:19:56;8.10;99.90
37642;DHT22;23486;51.956;5.888;2023-02-02T17:22:23;8.00;99.90
37642;DHT22;23486;51.956;5.888;2023-02-02T17:24:51;8.00;99.90
37642;DHT22;23486;51.956;5.888;2023-02-02T17:27:26;8.00;99.90
37642;DHT22;23486;51.956;5.888;2023-02-02T17:29:53;8.00;99.90
37642;DHT22;23486;51.956;5.888;2023-02-02T17:32:19;8.00;99.90
37642;DHT22;23486;51.956;5.888;2023-02-02T17:34:45;8.00;99.90
37642;DHT22;23486;51.956;5.888;2023-02-02T17:37:10;8.00;99.90
37642;DHT22;23486;51.956;5.888;2023-02-02T17:39:36;8.00;99.90
37642;DHT22;23486;51.956;5.888;2023-02-02T17:42:03;8.00;99.90
37642;DHT22;23486;51.956;5.888;2023-02-02T17:44:29;8.00;99.90
37642;DHT22;23486;51.956;5.888;2023-02-02T17:46:54;8.00;99.90
37642;DHT22;23486;51.956;5.888;2023-02-02T17:49:20;8.00;99.90
37642;DHT22;23486;51.956;5.888;2023-02-02T17:51:45;8.00;99.90
37642;DHT22;23486;51.956;5.888;2023-02-02T17:54:12;8.00;99.90
37642;DHT22;23486;51.956;5.888;2023-02-02T17:56:39;8.00;99.90
37642;DHT22;23486;51.956;5.888;2023-02-02T17:59:05;7.90;99.90
37642;DHT22;23486;51.956;5.888;2023-02-02T18:01:32;7.90;99.90
37642;DHT22;23486;51.956;5.888;2023-02-02T18:03:58;8.00;99.90
37642;DHT22;23486;51.956;5.888;2023-02-02T18:06:24;8.00;99.90
37642;DHT22;23486;51.956;5.888;2023-02-02T18:08:49;7.90;99.90
37642;DHT22;23486;51.956;5.888;2023-02-02T18:11:15;7.90;99.90
37642;DHT22;23486;51.956;5.888;2023-02-02T18:13:42;7.90;99.90
37642;DHT22;23486;51.956;5.888;2023-02-02T18:16:09;7.90;99.90
37642;DHT22;23486;51.956;5.888;2023-02-02T18:18:35;7.90;99.90
37642;DHT22;23486;51.956;5.888;2023-02-02T18:21:00;7.90;99.90
37642;DHT22;23486;51.956;5.888;2023-02-02T18:23:27;7.90;99.90
37642;DHT22;23486;51.956;5.888;2023-02-02T18:25:52;7.90;99.90
37642;DHT22;23486;51.956;5.888;2023-02-02T18:28:18;7.90;99.90
37642;DHT22;23486;51.956;5.888;2023-02-02T18:30:45;7.90;99.90
37642;DHT22;23486;51.956;5.888;2023-02-02T18:33:12;7.90;99.90
37642;DHT22;23486;51.956;5.888;2023-02-02T18:35:42;8.00;99.90
37642;DHT22;23486;51.956;5.888;2023-02-02T18:38:08;8.00;99.90
37642;DHT22;23486;51.956;5.888;2023-02-02T18:40:33;7.90;99.90
37642;DHT22;23486;51.956;5.888;2023-02-02T18:42:59;8.00;99.90
37642;DHT22;23486;51.956;5.888;2023-02-02T18:45:25;8.00;99.90
37642;DHT22;23486;51.956;5.888;2023-02-02T18:47:51;8.00;99.90